Cloverleaf, Texas
Current Conditions -  °F | °C
As of 5:50 PM on Monday 24 Nov 2014 (Local Time) from KEFD Reporting Station
Broken Clouds Broken Clouds  
Wind Chill: 61°   Ceiling: 15000
Heat Index: 61°   Visibility: 10mi
Dew Point: 34°   Wind: 9mph
Humidity: 36%   Direction: 350°N
Pressure: 30.05"   Gusts: NA
Location:  29.77°N, 95.17°W
Report Text: KEFD 242350Z 35008KT 10SM BKN150 16/01 A3005
Loading
Personal Weather Stations






























Interactive Weather Map New forecast layout! Learn more

10-Day Weather Forecast

Advertisements
Track Severe Weather on mobile